Time;durP1;ratioP1;P1;durP2;ratioP2;P2;SDS_P1;SDS_P2;PMS_P1;PMS_P2;Temp;Humidity;BMP_temperature;BMP_pressure;BME280_temperature;BME280_humidity;BME280_pressure;Samples;Min_cycle;Max_cycle;Signal;HPM_P1;HPM_P2
2021/10/20 00:01:27;;;;;;;70.30;32.30;;;;;;;-0.05;70.78;100557.73;116561;1201;138522;-66
2021/10/20 00:03:56;;;;;;;70.30;31.80;;;;;;;-0.01;70.08;100554.43;116601;1200;22323;-66
2021/10/20 00:06:24;;;;;;;90.10;35.90;;;;;;;-0.01;70.13;100549.95;116571;1200;23293;-66
2021/10/20 00:08:52;;;;;;;88.60;35.70;;;;;;;-0.01;69.96;100551.23;116540;1200;138393;-66
2021/10/20 00:11:20;;;;;;;88.40;37.10;;;;;;;-0.00;70.23;100558.41;116725;1201;22360;-66
2021/10/20 00:13:48;;;;;;;81.60;33.30;;;;;;;0.03;70.23;100563.63;116515;1200;139754;-66
2021/10/20 00:16:16;;;;;;;78.10;32.40;;;;;;;0.05;70.31;100563.54;116644;1200;24372;-66
2021/10/20 00:18:50;;;;;;;77.80;34.10;;;;;;;0.08;70.35;100560.10;116571;1200;138112;-66
2021/10/20 00:21:21;;;;;;;70.50;30.30;;;;;;;0.12;70.65;100548.06;116639;1200;22325;-67
2021/10/20 00:23:49;;;;;;;71.70;31.30;;;;;;;0.15;70.46;100539.61;116643;1201;22250;-66
2021/10/20 00:26:17;;;;;;;76.40;31.60;;;;;;;0.17;70.41;100532.64;116487;1187;137807;-66
2021/10/20 00:28:45;;;;;;;68.40;29.90;;;;;;;0.17;70.31;100525.85;116609;1200;22276;-66
2021/10/20 00:31:14;;;;;;;63.20;28.10;;;;;;;0.21;70.37;100523.44;116325;1195;138539;-66
2021/10/20 00:33:43;;;;;;;63.50;29.60;;;;;;;0.24;70.36;100522.38;116663;1201;22269;-66
2021/10/20 00:36:11;;;;;;;58.20;26.50;;;;;;;0.28;70.40;100514.73;116521;1202;22309;-66
2021/10/20 00:38:40;;;;;;;54.40;23.80;;;;;;;0.32;70.34;100511.81;116511;1199;137889;-65
2021/10/20 00:41:08;;;;;;;47.00;22.00;;;;;;;0.40;70.33;100518.66;113046;1201;22593;-61
2021/10/20 00:43:36;;;;;;;47.20;20.10;;;;;;;0.47;70.00;100520.35;116339;1201;139337;-61
2021/10/20 00:46:04;;;;;;;44.60;19.00;;;;;;;0.55;69.64;100517.04;116596;1201;22445;-62
2021/10/20 00:48:33;;;;;;;44.10;18.60;;;;;;;0.62;69.30;100521.14;116663;1201;22352;-62
2021/10/20 00:51:01;;;;;;;44.60;19.30;;;;;;;0.67;69.21;100521.59;116583;1200;137700;-62
2021/10/20 00:53:30;;;;;;;45.60;20.90;;;;;;;0.76;69.14;100519.35;116653;1200;22371;-62
2021/10/20 00:55:59;;;;;;;45.40;20.10;;;;;;;0.81;68.83;100518.55;116584;1200;138936;-61
2021/10/20 00:58:30;;;;;;;42.50;19.70;;;;;;;0.86;68.79;100512.33;116685;1201;22136;-61
2021/10/20 01:00:58;;;;;;;44.50;19.80;;;;;;;0.89;68.72;100512.61;116507;1200;138499;-61
2021/10/20 01:03:26;;;;;;;41.70;19.90;;;;;;;0.92;68.53;100521.02;116653;1202;22346;-60
2021/10/20 01:05:55;;;;;;;40.30;19.10;;;;;;;0.94;68.49;100519.79;116594;1202;22396;-61
2021/10/20 01:08:23;;;;;;;45.00;19.80;;;;;;;0.96;68.18;100513.85;116478;1201;137899;-61
2021/10/20 01:10:50;;;;;;;43.10;20.00;;;;;;;0.95;68.04;100508.05;116535;1201;22338;-61
2021/10/20 01:13:20;;;;;;;44.80;20.70;;;;;;;0.93;68.03;100510.73;116366;1201;139259;-61
2021/10/20 01:15:48;;;;;;;44.30;19.40;;;;;;;0.88;68.10;100509.02;116572;1201;22375;-62
2021/10/20 01:18:16;;;;;;;41.90;19.30;;;;;;;0.83;68.18;100513.31;116529;1195;23382;-62
2021/10/20 01:20:44;;;;;;;40.70;20.10;;;;;;;0.80;67.99;100513.92;116517;1200;138417;-61
2021/10/20 01:23:12;;;;;;;41.00;20.10;;;;;;;0.75;67.82;100504.00;116333;1202;22327;-62
2021/10/20 01:25:40;;;;;;;36.00;18.20;;;;;;;0.73;67.73;100499.23;116474;1202;137797;-61
2021/10/20 01:28:08;;;;;;;40.30;19.20;;;;;;;0.68;67.89;100496.04;116590;1202;22310;-61
2021/10/20 01:30:38;;;;;;;37.80;18.60;;;;;;;0.61;67.75;100496.81;116551;1201;22960;-61
2021/10/20 01:33:06;;;;;;;39.80;19.30;;;;;;;0.54;67.88;100497.64;116441;1201;138049;-61
2021/10/20 01:35:34;;;;;;;38.20;19.20;;;;;;;0.47;67.96;100492.14;116571;1202;22311;-61
2021/10/20 01:38:02;;;;;;;35.70;18.10;;;;;;;0.41;68.49;100494.10;116413;1201;138238;-61
2021/10/20 01:40:30;;;;;;;38.70;17.70;;;;;;;0.36;68.54;100493.76;116623;1195;22387;-61
2021/10/20 01:42:58;;;;;;;39.80;17.50;;;;;;;0.30;68.57;100493.08;116460;1202;138120;-61
2021/10/20 01:45:26;;;;;;;32.30;16.40;;;;;;;0.25;68.86;100488.48;116512;1201;22243;-61
2021/10/20 01:47:54;;;;;;;42.00;18.20;;;;;;;0.18;68.90;100489.43;116567;1202;22475;-61
2021/10/20 01:50:22;;;;;;;36.10;16.60;;;;;;;0.11;68.84;100497.02;116521;1202;137840;-61
2021/10/20 01:52:50;;;;;;;33.00;16.10;;;;;;;0.05;68.86;100501.38;116557;1202;22242;-61
2021/10/20 01:55:19;;;;;;;34.90;16.40;;;;;;;0.01;69.32;100498.50;116407;1201;138008;-61
2021/10/20 01:57:47;;;;;;;34.60;16.90;;;;;;;-0.04;69.23;100499.21;116641;1202;23236;-62
2021/10/20 02:00:15;;;;;;;35.50;16.10;;;;;;;-0.10;69.30;100504.31;116550;1202;23565;-62
2021/10/20 02:02:44;;;;;;;36.10;18.40;;;;;;;-0.13;69.39;100507.48;116466;1202;138621;-62
2021/10/20 02:05:13;;;;;;;37.20;17.60;;;;;;;-0.15;69.64;100510.70;116358;1202;22269;-62
2021/10/20 02:07:41;;;;;;;40.30;19.80;;;;;;;-0.17;69.64;100515.04;116243;1202;138201;-62
2021/10/20 02:10:11;;;;;;;40.50;18.80;;;;;;;-0.18;69.60;100514.86;116354;1202;22377;-62
2021/10/20 02:12:39;;;;;;;35.20;18.20;;;;;;;-0.21;69.76;100515.09;116121;1204;22711;-61
2021/10/20 02:15:08;;;;;;;39.50;18.30;;;;;;;-0.22;69.82;100509.48;116221;1202;139059;-61
2021/10/20 02:17:36;;;;;;;35.40;17.00;;;;;;;-0.24;69.61;100509.58;116310;1202;23196;-61
2021/10/20 02:20:12;;;;;;;34.50;17.50;;;;;;;-0.28;69.49;100515.56;116048;1203;139081;-61
2021/10/20 02:22:41;;;;;;;33.70;16.40;;;;;;;-0.32;70.12;100510.64;116390;1202;22483;-61
2021/10/20 02:25:09;;;;;;;36.90;18.20;;;;;;;-0.35;70.15;100507.38;116220;1196;140052;-61
2021/10/20 02:27:37;;;;;;;32.40;16.50;;;;;;;-0.38;70.13;100503.68;116358;1188;22417;-61
2021/10/20 02:30:06;;;;;;;35.40;16.60;;;;;;;-0.42;69.76;100501.87;116376;1203;22357;-61
2021/10/20 02:32:34;;;;;;;41.80;18.00;;;;;;;-0.49;69.77;100501.02;116068;1203;140614;-61
2021/10/20 02:35:04;;;;;;;36.10;16.70;;;;;;;-0.57;70.06;100502.15;116320;1203;22177;-61
2021/10/20 02:37:33;;;;;;;43.40;18.40;;;;;;;-0.56;70.15;100506.23;116457;1202;139840;-61
2021/10/20 02:40:05;;;;;;;32.90;14.90;;;;;;;-0.58;70.36;100501.77;116591;1201;23208;-56
2021/10/20 02:42:33;;;;;;;31.20;15.70;;;;;;;-0.61;70.25;100499.59;116518;1202;22361;-56
2021/10/20 02:45:01;;;;;;;40.50;16.10;;;;;;;-0.63;70.64;100499.54;116470;1202;138181;-56
2021/10/20 02:47:29;;;;;;;35.60;16.80;;;;;;;-0.69;70.78;100492.95;116538;1201;23051;-56
2021/10/20 02:49:57;;;;;;;40.20;17.10;;;;;;;-0.67;70.90;100500.23;116412;1202;138130;-56
2021/10/20 02:52:26;;;;;;;38.20;16.40;;;;;;;-0.65;71.18;100503.81;116630;1196;22363;-56
2021/10/20 02:54:54;;;;;;;33.30;14.60;;;;;;;-0.61;71.55;100511.23;116478;1201;138568;-56
2021/10/20 02:57:22;;;;;;;35.90;15.70;;;;;;;-0.55;71.90;100512.36;116560;1202;22411;-56
2021/10/20 02:59:52;;;;;;;31.40;15.40;;;;;;;-0.49;72.17;100514.71;116606;1202;23043;-56
2021/10/20 03:02:20;;;;;;;34.00;16.10;;;;;;;-0.42;72.26;100516.42;116417;1202;138626;-56
2021/10/20 03:04:48;;;;;;;33.30;15.60;;;;;;;-0.34;72.50;100518.70;116536;1187;22369;-56
2021/10/20 03:07:16;;;;;;;34.80;16.50;;;;;;;-0.27;72.53;100522.55;116449;1202;139509;-56
2021/10/20 03:09:45;;;;;;;34.30;16.70;;;;;;;-0.20;72.60;100520.04;116563;1195;23220;-56
2021/10/20 03:12:13;;;;;;;33.50;15.60;;;;;;;-0.13;72.74;100519.20;116554;1195;22269;-57
2021/10/20 03:14:50;;;;;;;35.10;18.30;;;;;;;-0.07;72.76;100518.23;116487;1202;139306;-56
2021/10/20 03:17:18;;;;;;;31.80;16.30;;;;;;;0.01;73.05;100519.50;116559;1201;22327;-56
2021/10/20 03:19:46;;;;;;;34.30;16.70;;;;;;;0.08;73.10;100516.16;116422;1201;138519;-56
2021/10/20 03:22:14;;;;;;;35.20;17.10;;;;;;;0.16;73.28;100512.40;116593;1196;22299;-56
2021/10/20 03:24:42;;;;;;;34.30;17.10;;;;;;;0.24;73.43;100506.16;116505;1201;22307;-56
2021/10/20 03:27:10;;;;;;;34.60;16.00;;;;;;;0.32;73.76;100503.06;116452;1202;137505;-56
2021/10/20 03:29:38;;;;;;;38.40;16.40;;;;;;;0.40;74.09;100503.10;116569;1202;22363;-56
2021/10/20 03:32:07;;;;;;;35.00;16.00;;;;;;;0.51;73.89;100508.92;116498;1202;138430;-56
2021/10/20 03:34:35;;;;;;;39.30;17.00;;;;;;;0.60;74.31;100508.05;116543;1202;22359;-56
2021/10/20 03:37:04;;;;;;;29.40;14.60;;;;;;;0.70;74.23;100501.70;116472;1201;138042;-56
2021/10/20 03:39:32;;;;;;;36.90;15.00;;;;;;;0.80;74.14;100499.50;116537;1202;22285;-56
2021/10/20 03:42:00;;;;;;;31.00;15.00;;;;;;;0.91;74.40;100494.55;116590;1202;23106;-56
2021/10/20 03:44:28;;;;;;;30.00;13.70;;;;;;;1.02;74.55;100492.43;116459;1201;137868;-57
2021/10/20 03:46:56;;;;;;;49.10;15.60;;;;;;;1.11;74.75;100488.75;116537;1202;22262;-57
2021/10/20 03:49:24;;;;;;;35.50;13.40;;;;;;;1.22;74.68;100490.14;116436;1202;139141;-57
2021/10/20 03:51:53;;;;;;;34.10;13.40;;;;;;;1.32;74.57;100491.48;116603;1202;23271;-57
2021/10/20 03:54:21;;;;;;;21.20;10.00;;;;;;;1.44;74.28;100491.43;116592;1202;23117;-57
2021/10/20 03:56:49;;;;;;;19.70;8.80;;;;;;;1.55;73.47;100490.66;116409;1201;137771;-57
2021/10/20 03:59:17;;;;;;;22.10;9.10;;;;;;;1.66;72.63;100489.58;116532;1195;22255;-57
2021/10/20 04:01:45;;;;;;;33.40;12.20;;;;;;;1.80;71.85;100492.80;116324;1202;138391;-57
2021/10/20 04:04:13;;;;;;;41.50;13.70;;;;;;;1.93;71.14;100491.77;116594;1202;22317;-56
2021/10/20 04:06:41;;;;;;;46.90;15.70;;;;;;;2.06;70.63;100488.80;116522;1202;23300;-56
2021/10/20 04:09:15;;;;;;;46.80;15.80;;;;;;;2.20;70.28;100489.16;116459;1202;138221;-56
2021/10/20 04:11:43;;;;;;;46.60;14.60;;;;;;;2.33;70.19;100488.77;116607;1202;23144;-56
2021/10/20 04:14:11;;;;;;;45.20;13.60;;;;;;;2.44;69.95;100486.56;116424;1195;138880;-56
2021/10/20 04:16:39;;;;;;;39.70;12.40;;;;;;;2.57;69.49;100480.30;116542;1202;22872;-56
2021/10/20 04:19:08;;;;;;;33.10;10.20;;;;;;;2.68;69.01;100471.55;116363;1202;140388;-56
2021/10/20 04:21:36;;;;;;;23.90;7.50;;;;;;;2.81;68.49;100456.38;116581;1188;22166;-56
2021/10/20 04:24:04;;;;;;;15.60;5.90;;;;;;;2.93;67.69;100444.95;116506;1196;24680;-56
2021/10/20 04:26:32;;;;;;;14.00;5.10;;;;;;;3.06;67.16;100432.80;116410;1202;138058;-57
2021/10/20 04:29:00;;;;;;;13.20;5.20;;;;;;;3.17;66.57;100431.45;116546;1202;22346;-56
2021/10/20 04:31:28;;;;;;;16.60;5.00;;;;;;;3.32;65.91;100439.38;116425;1202;138408;-58
2021/10/20 04:33:56;;;;;;;11.50;4.40;;;;;;;3.45;65.11;100441.69;116529;1202;22354;-58
2021/10/20 04:36:25;;;;;;;14.50;4.40;;;;;;;3.58;64.63;100437.13;116581;1202;22338;-58
2021/10/20 04:38:53;;;;;;;10.70;4.30;;;;;;;3.70;64.23;100437.05;116457;1202;138623;-58
2021/10/20 04:41:21;;;;;;;12.00;4.80;;;;;;;3.80;63.74;100437.44;116565;1201;22316;-56
2021/10/20 04:43:50;;;;;;;11.60;4.50;;;;;;;3.90;63.11;100441.65;116494;1202;138925;-57
2021/10/20 04:46:18;;;;;;;18.30;4.80;;;;;;;4.00;62.55;100440.42;116525;1201;23655;-57
2021/10/20 04:48:46;;;;;;;10.70;5.20;;;;;;;4.08;62.08;100437.63;116528;1195;22393;-58
2021/10/20 04:51:14;;;;;;;8.10;3.70;;;;;;;4.17;61.71;100436.85;116424;1201;137954;-56
2021/10/20 04:53:44;;;;;;;13.30;4.20;;;;;;;4.26;61.42;100431.27;116584;1202;22443;-57
2021/10/20 04:56:12;;;;;;;7.30;3.90;;;;;;;4.33;61.32;100432.86;116428;1202;137487;-57
2021/10/20 04:58:40;;;;;;;8.00;4.10;;;;;;;4.40;60.71;100435.04;116551;1202;22367;-60
2021/10/20 05:01:08;;;;;;;12.40;4.70;;;;;;;4.46;60.61;100435.88;116444;1202;138646;-59
2021/10/20 05:03:36;;;;;;;15.30;7.20;;;;;;;4.51;60.30;100430.39;116536;1202;23065;-59
2021/10/20 05:06:05;;;;;;;21.30;7.10;;;;;;;4.58;59.79;100432.11;116491;1202;22326;-59
2021/10/20 05:08:34;;;;;;;12.50;6.40;;;;;;;4.64;60.20;100427.23;116400;1201;137934;-59
2021/10/20 05:11:02;;;;;;;18.10;7.30;;;;;;;4.68;59.86;100425.27;116414;1196;22268;-59
2021/10/20 05:13:31;;;;;;;13.70;5.80;;;;;;;4.73;59.58;100427.02;116438;1197;138285;-58
2021/10/20 05:15:59;;;;;;;10.70;5.90;;;;;;;4.77;59.67;100419.52;116565;1199;22304;-58
2021/10/20 05:18:27;;;;;;;26.60;7.80;;;;;;;4.80;59.59;100419.99;116549;1195;23075;-59
2021/10/20 05:20:55;;;;;;;13.90;6.90;;;;;;;4.85;59.40;100414.63;116461;1201;138088;-59
2021/10/20 05:23:23;;;;;;;24.30;7.10;;;;;;;4.88;59.25;100418.94;116575;1201;22476;-59
2021/10/20 05:25:56;;;;;;;28.60;6.90;;;;;;;4.90;59.04;100422.46;116381;1195;137887;-57
2021/10/20 05:28:24;;;;;;;18.80;8.00;;;;;;;4.92;58.85;100423.05;116586;1187;22334;-57
2021/10/20 05:30:52;;;;;;;16.80;8.30;;;;;;;4.95;59.00;100421.45;116491;1201;22392;-57
2021/10/20 05:33:20;;;;;;;22.30;8.60;;;;;;;4.97;58.67;100419.35;116402;1202;137625;-57
2021/10/20 05:35:49;;;;;;;16.40;8.10;;;;;;;5.00;59.11;100418.08;116545;1201;22295;-57
2021/10/20 05:38:16;;;;;;;19.80;8.20;;;;;;;5.03;58.49;100420.72;116471;1202;138234;-57
2021/10/20 05:40:44;;;;;;;20.30;8.70;;;;;;;5.06;58.55;100416.55;113542;1202;22930;-61
2021/10/20 05:43:12;;;;;;;19.80;8.70;;;;;;;5.09;58.56;100408.48;116290;1194;137248;-61
2021/10/20 05:45:40;;;;;;;37.80;9.80;;;;;;;5.13;58.53;100412.61;116559;1202;22278;-61
2021/10/20 05:48:08;;;;;;;17.20;7.70;;;;;;;5.14;58.41;100410.09;116641;1202;22322;-61
2021/10/20 05:50:37;;;;;;;14.20;7.00;;;;;;;5.18;58.21;100410.65;116471;1202;137150;-62
2021/10/20 05:55:45;;;;;;;15.00;7.20;;;;;;;5.27;58.53;100404.02;110660;1209;544895;-62
2021/10/20 05:58:13;;;;;;;19.70;7.70;;;;;;;5.28;57.99;100402.63;111796;1205;25013;-62
2021/10/20 06:00:42;;;;;;;23.00;8.70;;;;;;;5.33;57.98;100401.93;111785;1205;23771;-63
2021/10/20 06:03:10;;;;;;;17.50;8.30;;;;;;;5.38;57.85;100398.79;111577;1198;136656;-63
2021/10/20 06:05:38;;;;;;;24.00;8.20;;;;;;;5.42;57.73;100390.95;111693;1205;22451;-62
2021/10/20 06:08:07;;;;;;;23.80;8.00;;;;;;;5.45;57.79;100383.90;111685;1204;136331;-63
2021/10/20 06:10:36;;;;;;;21.00;8.90;;;;;;;5.50;57.98;100385.09;115897;1205;22262;-64
2021/10/20 06:13:04;;;;;;;16.30;7.60;;;;;;;5.55;57.84;100386.15;116058;1203;135762;-63
2021/10/20 06:15:32;;;;;;;17.40;8.70;;;;;;;5.58;57.91;100391.04;115974;1205;23037;-62
2021/10/20 06:18:09;;;;;;;21.30;8.90;;;;;;;5.61;57.99;100392.63;116019;1200;23293;-63
2021/10/20 06:20:37;;;;;;;17.40;7.70;;;;;;;5.64;57.92;100386.84;115934;1206;138100;-62
2021/10/20 06:23:05;;;;;;;19.90;9.30;;;;;;;5.66;57.67;100377.23;115927;1205;22338;-63
2021/10/20 06:25:36;;;;;;;16.50;8.10;;;;;;;5.69;58.06;100377.37;116464;1202;136870;-63
2021/10/20 06:28:04;;;;;;;14.60;8.70;;;;;;;5.71;58.05;100378.70;116532;1202;22323;-62
2021/10/20 06:30:33;;;;;;;18.50;8.80;;;;;;;5.73;58.40;100379.21;116508;1202;22316;-62
2021/10/20 06:33:01;;;;;;;22.60;9.30;;;;;;;5.76;58.57;100374.64;116440;1202;137482;-63
2021/10/20 06:35:29;;;;;;;16.70;8.40;;;;;;;5.81;58.91;100370.02;116499;1201;22442;-63
2021/10/20 06:37:57;;;;;;;21.40;10.70;;;;;;;5.86;59.33;100368.17;116417;1202;137883;-62
2021/10/20 06:40:25;;;;;;;22.30;10.80;;;;;;;5.93;59.99;100364.23;116509;1194;23078;-57
2021/10/20 06:42:53;;;;;;;18.00;10.20;;;;;;;6.00;60.17;100359.76;116509;1202;22384;-55
2021/10/20 06:45:21;;;;;;;25.20;9.20;;;;;;;6.08;60.75;100354.09;116331;1202;136891;-57
2021/10/20 06:47:50;;;;;;;31.10;10.80;;;;;;;6.16;60.68;100352.48;116564;1202;22251;-57
2021/10/20 06:50:18;;;;;;;19.20;10.70;;;;;;;6.25;61.07;100350.67;116287;1201;139885;-57
2021/10/20 06:52:47;;;;;;;21.50;11.60;;;;;;;6.34;61.46;100346.61;116508;1202;22394;-57
2021/10/20 06:55:15;;;;;;;19.30;11.00;;;;;;;6.47;61.28;100344.23;116401;1201;137108;-58
2021/10/20 06:57:43;;;;;;;24.80;11.30;;;;;;;6.57;61.62;100341.29;116564;1195;22241;-57
2021/10/20 07:00:12;;;;;;;20.80;12.80;;;;;;;6.69;61.32;100338.55;116521;1202;22375;-57
2021/10/20 07:02:40;;;;;;;21.60;13.10;;;;;;;6.80;61.32;100336.77;116375;1202;137251;-58
2021/10/20 07:05:08;;;;;;;22.80;11.20;;;;;;;6.86;60.77;100334.45;116514;1201;22295;-57
2021/10/20 07:07:37;;;;;;;28.10;11.90;;;;;;;6.91;60.89;100338.98;116409;1198;137949;-58
2021/10/20 07:10:05;;;;;;;19.20;10.50;;;;;;;6.97;60.87;100343.74;116512;1202;22243;-57
2021/10/20 07:12:38;;;;;;;24.00;11.00;;;;;;;7.02;61.06;100339.69;116548;1202;22311;-57
2021/10/20 07:15:06;;;;;;;24.90;11.10;;;;;;;7.08;61.11;100326.36;116377;1201;138405;-60
2021/10/20 07:17:35;;;;;;;26.50;11.90;;;;;;;7.13;61.54;100330.88;116491;1202;23463;-60
2021/10/20 07:20:04;;;;;;;23.90;10.60;;;;;;;7.18;61.58;100331.83;116320;1202;137527;-57
2021/10/20 07:22:38;;;;;;;25.50;12.30;;;;;;;7.24;61.54;100323.49;116441;1202;22237;-57
2021/10/20 07:25:08;;;;;;;25.40;10.90;;;;;;;7.28;61.55;100319.17;116407;1201;138516;-58
2021/10/20 07:27:37;;;;;;;22.60;12.40;;;;;;;7.33;61.63;100320.62;116458;1201;23010;-57
2021/10/20 07:30:06;;;;;;;24.70;11.40;;;;;;;7.37;61.65;100320.08;116352;1202;22336;-57
2021/10/20 07:32:41;;;;;;;17.70;11.10;;;;;;;7.42;61.75;100323.77;116420;1202;137658;-58
2021/10/20 07:35:10;;;;;;;23.70;11.40;;;;;;;7.45;61.82;100314.78;116445;1201;22306;-57
2021/10/20 07:37:39;;;;;;;29.10;12.10;;;;;;;7.51;62.19;100316.37;116387;1202;137248;-57
2021/10/20 07:40:08;;;;;;;19.30;11.30;;;;;;;7.57;62.21;100318.87;116564;1202;22364;-56
2021/10/20 07:42:37;;;;;;;22.30;10.80;;;;;;;7.65;62.51;100316.14;116418;1196;22374;-56
2021/10/20 07:45:07;;;;;;;26.30;11.80;;;;;;;7.73;62.86;100316.02;116387;1201;137710;-56
2021/10/20 07:47:38;;;;;;;26.60;11.30;;;;;;;7.82;62.97;100318.19;116520;1202;22391;-56
2021/10/20 07:50:06;;;;;;;23.10;10.70;;;;;;;7.90;63.03;100312.00;116439;1202;138523;-57
2021/10/20 07:52:36;;;;;;;21.20;11.70;;;;;;;7.99;63.38;100304.31;116568;1202;22250;-57
2021/10/20 07:55:05;;;;;;;26.50;12.30;;;;;;;8.10;63.52;100302.89;116375;1202;138024;-58
2021/10/20 07:57:34;;;;;;;21.50;11.90;;;;;;;8.21;63.72;100299.70;116578;1202;22999;-56
2021/10/20 08:00:03;;;;;;;26.90;12.60;;;;;;;8.29;63.75;100297.69;116499;1202;22276;-55
2021/10/20 08:02:33;;;;;;;20.20;13.40;;;;;;;8.39;63.76;100297.32;116360;1202;137600;-56
2021/10/20 08:05:02;;;;;;;22.00;12.90;;;;;;;8.48;63.81;100291.30;116526;1198;22371;-56
2021/10/20 08:07:30;;;;;;;26.90;14.30;;;;;;;8.58;64.06;100290.23;116407;1202;137764;-56
2021/10/20 08:09:58;;;;;;;28.80;14.30;;;;;;;8.68;64.36;100286.89;116534;1202;22331;-55
2021/10/20 08:12:26;;;;;;;21.50;13.20;;;;;;;8.80;64.63;100279.48;116539;1201;22239;-55
2021/10/20 08:14:56;;;;;;;31.80;13.80;;;;;;;8.94;64.93;100276.02;116408;1202;137827;-55
2021/10/20 08:17:24;;;;;;;32.40;14.90;;;;;;;9.07;65.06;100277.04;116498;1201;22407;-55
2021/10/20 08:19:52;;;;;;;33.70;14.00;;;;;;;9.19;65.32;100270.77;116389;1202;138104;-58
2021/10/20 08:22:20;;;;;;;26.00;13.90;;;;;;;9.30;65.46;100258.57;116492;1202;23343;-58
2021/10/20 08:24:48;;;;;;;22.20;14.70;;;;;;;9.43;65.61;100256.48;116466;1201;22327;-60
2021/10/20 08:27:16;;;;;;;30.30;15.60;;;;;;;9.54;65.44;100249.19;116374;1202;138502;-59
2021/10/20 08:29:44;;;;;;;43.60;15.10;;;;;;;9.65;65.45;100240.58;116564;1201;22477;-60
2021/10/20 08:32:12;;;;;;;23.60;14.40;;;;;;;9.75;65.69;100237.94;116438;1202;140837;-60
2021/10/20 08:34:40;;;;;;;27.50;15.50;;;;;;;9.82;65.50;100233.61;116488;1201;22706;-56
2021/10/20 08:37:08;;;;;;;27.90;16.70;;;;;;;9.89;65.57;100229.86;116352;1202;138334;-59
2021/10/20 08:39:36;;;;;;;28.50;16.00;;;;;;;9.97;65.89;100230.40;116498;1202;22335;-56
2021/10/20 08:42:04;;;;;;;29.50;15.60;;;;;;;10.05;65.87;100227.12;116508;1202;22396;-57
2021/10/20 08:44:32;;;;;;;25.30;16.30;;;;;;;10.13;66.08;100226.21;116162;1202;138043;-55
2021/10/20 08:47:01;;;;;;;27.20;15.90;;;;;;;10.21;66.28;100223.32;116507;1202;22182;-57
2021/10/20 08:49:30;;;;;;;35.20;16.10;;;;;;;10.31;66.08;100220.28;116234;1202;138854;-61
2021/10/20 08:51:58;;;;;;;30.80;16.10;;;;;;;10.42;65.96;100219.64;116470;1202;22315;-56
2021/10/20 08:54:28;;;;;;;31.10;16.60;;;;;;;10.53;65.80;100219.17;116427;1202;22800;-57
2021/10/20 08:56:56;;;;;;;29.00;18.10;;;;;;;10.65;65.86;100214.84;116237;1202;138729;-56
2021/10/20 08:59:25;;;;;;;30.80;17.90;;;;;;;10.77;65.77;100206.90;116225;1203;22407;-57
2021/10/20 09:01:53;;;;;;;25.20;15.40;;;;;;;10.87;65.26;100201.21;116346;1201;138379;-57
2021/10/20 09:04:22;;;;;;;27.40;17.40;;;;;;;10.96;65.14;100195.55;116556;1202;22346;-56
2021/10/20 09:06:50;;;;;;;33.00;16.10;;;;;;;11.05;64.90;100193.31;116115;1202;22325;-55
2021/10/20 09:09:18;;;;;;;32.70;16.40;;;;;;;11.13;64.92;100193.95;116357;1202;138181;-55
2021/10/20 09:11:46;;;;;;;24.70;16.30;;;;;;;11.20;64.73;100191.95;116528;1202;23108;-55
2021/10/20 09:14:19;;;;;;;26.70;18.30;;;;;;;11.25;64.44;100193.64;116411;1202;139153;-55
2021/10/20 09:16:47;;;;;;;34.80;16.90;;;;;;;11.30;64.08;100190.70;116528;1202;22376;-58
2021/10/20 09:19:21;;;;;;;27.80;17.90;;;;;;;11.33;63.99;100179.59;116420;1201;138608;-57
2021/10/20 09:21:58;;;;;;;31.50;17.40;;;;;;;11.38;64.24;100179.45;116483;1202;22898;-56
2021/10/20 09:24:37;;;;;;;28.60;17.10;;;;;;;11.43;64.20;100177.83;116571;1202;22349;-56
2021/10/20 09:27:27;;;;;;;34.10;18.50;;;;;;;11.47;64.07;100160.48;116172;1199;139342;-55
2021/10/20 09:30:09;;;;;;;45.90;18.10;;;;;;;11.51;63.83;100157.73;116275;1203;23083;-55
2021/10/20 09:32:37;;;;;;;33.40;18.50;;;;;;;11.56;63.62;100162.76;116359;1202;138739;-55
2021/10/20 09:35:06;;;;;;;28.50;18.10;;;;;;;11.55;63.58;100147.42;116207;1202;22375;-55
2021/10/20 09:37:35;;;;;;;30.60;18.20;;;;;;;11.61;63.64;100151.82;116070;1202;139273;-55
2021/10/20 09:40:04;;;;;;;31.20;18.30;;;;;;;11.67;63.54;100150.51;116533;1197;23356;-55
2021/10/20 09:42:46;;;;;;;33.70;17.40;;;;;;;11.71;63.67;100150.21;116564;1197;22972;-55
2021/10/20 09:45:15;;;;;;;31.00;18.00;;;;;;;11.76;63.52;100146.08;116356;1202;138979;-56
2021/10/20 09:47:43;;;;;;;26.40;17.60;;;;;;;11.81;63.72;100134.10;116447;1203;22318;-56
2021/10/20 09:50:11;;;;;;;34.90;17.10;;;;;;;11.89;63.83;100133.38;116341;1202;138852;-58
2021/10/20 09:52:50;;;;;;;31.10;17.90;;;;;;;11.97;63.48;100131.80;116514;1202;22254;-60
2021/10/20 09:55:29;;;;;;;26.00;16.50;;;;;;;12.06;63.36;100129.18;116427;1201;138576;-58
2021/10/20 09:58:02;;;;;;;37.10;19.10;;;;;;;12.14;63.27;100124.74;116151;1202;22230;-59
2021/10/20 10:00:30;;;;;;;27.10;16.60;;;;;;;12.20;63.12;100117.80;116466;1201;23101;-57
2021/10/20 10:02:58;;;;;;;27.80;16.90;;;;;;;12.28;63.11;100121.65;116411;1201;139036;-57
2021/10/20 10:05:27;;;;;;;24.90;16.40;;;;;;;12.33;62.97;100119.65;116441;1201;22346;-58
2021/10/20 10:07:56;;;;;;;32.50;17.80;;;;;;;12.40;63.03;100113.07;116404;1202;138144;-55
2021/10/20 10:10:24;;;;;;;27.20;14.40;;;;;;;12.49;63.07;100107.42;116498;1202;22380;-56
2021/10/20 10:12:56;;;;;;;23.00;13.40;;;;;;;12.58;62.43;100104.62;116547;1201;22314;-55
2021/10/20 10:15:25;;;;;;;31.90;15.40;;;;;;;12.66;62.22;100103.52;116137;1202;137844;-56
2021/10/20 10:17:55;;;;;;;26.00;14.60;;;;;;;12.72;61.79;100100.61;116509;1201;23338;-56
2021/10/20 10:20:29;;;;;;;28.90;14.40;;;;;;;12.75;61.46;100095.08;116263;1202;137483;-56
2021/10/20 10:23:07;;;;;;;20.30;13.60;;;;;;;12.78;61.33;100090.57;116585;1202;22732;-56
2021/10/20 10:25:40;;;;;;;20.10;13.70;;;;;;;12.79;61.18;100084.45;116383;1202;137649;-56
2021/10/20 10:28:19;;;;;;;25.00;14.60;;;;;;;12.82;61.19;100078.46;116475;1197;23153;-55
2021/10/20 10:30:51;;;;;;;27.10;15.30;;;;;;;12.85;61.18;100073.06;116489;1201;22346;-56
2021/10/20 10:33:30;;;;;;;28.00;13.10;;;;;;;12.88;61.05;100065.98;116406;1202;137370;-56
2021/10/20 10:36:21;;;;;;;24.90;14.10;;;;;;;12.91;60.89;100055.46;116557;1201;22291;-56
2021/10/20 10:39:02;;;;;;;28.80;15.60;;;;;;;12.96;60.81;100059.88;116141;1201;137423;-56
2021/10/20 10:41:42;;;;;;;20.60;13.40;;;;;;;12.98;60.56;100053.50;116472;1202;22330;-56
2021/10/20 10:44:12;;;;;;;27.40;15.40;;;;;;;13.01;60.53;100048.80;116361;1202;137941;-56
2021/10/20 10:46:54;;;;;;;24.80;15.00;;;;;;;13.02;60.55;100044.17;116499;1201;22250;-56
2021/10/20 10:49:27;;;;;;;35.70;14.70;;;;;;;13.05;60.36;100043.11;116390;1201;138016;-56
2021/10/20 10:52:16;;;;;;;30.20;15.40;;;;;;;13.10;60.25;100039.77;116587;1202;22372;-56
2021/10/20 10:55:08;;;;;;;26.90;16.10;;;;;;;13.15;59.97;100040.73;116457;1202;22334;-57
2021/10/20 10:57:43;;;;;;;27.60;15.70;;;;;;;13.20;60.01;100041.55;116451;1190;138314;-57
2021/10/20 11:00:17;;;;;;;25.70;15.90;;;;;;;13.23;59.96;100029.59;116494;1202;22344;-57
2021/10/20 11:02:55;;;;;;;30.30;16.30;;;;;;;13.27;60.22;100022.45;116378;1197;137902;-56
2021/10/20 11:05:26;;;;;;;;;;;;;;;13.33;60.09;100018.11;116467;1201;22369;-57
2021/10/20 11:08:09;;;;;;;30.50;14.80;;;;;;;13.38;60.02;100010.54;116373;1202;124135;-57
2021/10/20 11:10:42;;;;;;;23.10;14.60;;;;;;;13.43;59.71;99999.88;116562;1201;22947;-56
2021/10/20 11:13:12;;;;;;;26.90;14.10;;;;;;;13.48;59.63;99997.72;116494;1201;22277;-57
2021/10/20 11:15:41;;;;;;;27.40;16.10;;;;;;;13.48;59.39;99998.83;116390;1200;137558;-56
2021/10/20 11:18:30;;;;;;;21.00;14.00;;;;;;;13.53;59.27;100005.42;116546;1202;22155;-57